KRUE

Details ICAO KRUE
Name RUSSELLVILLE RGNL
Region United States
Timezone America/Chicago (UTC-5.0)
Plans Departing 1
Arriving 13
Stats Elevation 403 ft / 123 m (AMSL)
Location 35.259147° -93.093266°
Runways 1
Magnetic Variation 0.765° E
Sunrise 2018-05-26 11:02:48 UTC / 2018-05-26 06:02:48 Local
Sunset 2018-05-27 01:18:58 UTC / 2018-05-26 20:18:58 Local
Advertisement - Login to hide

Runways

ID Width Length Bearing (true) Bearing (mag) Surface Threshold Offset Overrun Length
07 75 ft / 23 m 5,085 ft / 1,550 m 74.98° 74.21° Asphalt 0 ft / 0 m 0 ft / 0 m
25 75 ft / 23 m 5,085 ft / 1,550 m 254.99° 254.22° Asphalt 300 ft / 91 m 0 ft / 0 m

Map

Weather


0- 5 10 15 20 25 30 35+ Temperature / ° C

Clouds and Precipitation
Forecast for 2018-05-27 00:00 UTC. Updated 4 hours ago

Ground ~20,000 ft ~40,000 ft Winds

METAR

KRUE 270253Z AUTO 00000KT 10SM CLR 23/22 A2984 RMK AO2 SLP098 T02280222 53017

TAF

Not found

Frequencies

Recorded 132.47 MHz ASOS
Approach 128.47 MHz MEMPHIS CNTR
Unicom 122.70 MHz CTAF/UNICOM
Warning: Do not use this data for real-world aviation or navigation. No guarantee of current accuracy is given.